createdAt,value
2022-11-17T00:01:31.319Z,11.61
2022-11-17T00:04:00.949Z,11.59
2022-11-17T00:06:28.857Z,11.59
2022-11-17T00:08:56.783Z,11.60
2022-11-17T00:11:24.722Z,11.62
2022-11-17T00:14:09.956Z,11.61
2022-11-17T00:16:40.618Z,11.60
2022-11-17T00:19:27.656Z,11.67
2022-11-17T00:21:55.543Z,11.70
2022-11-17T00:24:24.104Z,11.68
2022-11-17T00:27:04.378Z,11.68
2022-11-17T00:29:35.308Z,11.67
2022-11-17T00:32:24.632Z,11.67
2022-11-17T00:34:54.080Z,11.61
2022-11-17T00:37:22.339Z,11.59
2022-11-17T00:39:50.238Z,11.57
2022-11-17T00:42:18.672Z,11.50
2022-11-17T00:44:46.598Z,11.48
2022-11-17T00:47:14.641Z,11.50
2022-11-17T00:49:42.621Z,11.45
2022-11-17T00:52:12.028Z,11.44
2022-11-17T00:54:40.490Z,11.43
2022-11-17T00:57:10.761Z,11.43
2022-11-17T00:59:38.993Z,11.46
2022-11-17T01:02:07.197Z,11.43
2022-11-17T01:04:35.114Z,11.44
2022-11-17T01:07:03.280Z,11.43
2022-11-17T01:09:32.547Z,11.34
2022-11-17T01:12:00.474Z,11.35
2022-11-17T01:14:32.658Z,11.32
2022-11-17T01:17:00.545Z,11.31
2022-11-17T01:19:28.493Z,11.30
2022-11-17T01:21:58.505Z,11.26
2022-11-17T01:24:29.667Z,11.28
2022-11-17T01:26:59.098Z,11.27
2022-11-17T01:29:29.719Z,11.27
2022-11-17T01:31:57.784Z,11.22
2022-11-17T01:34:25.999Z,11.18
2022-11-17T01:37:11.471Z,11.17
2022-11-17T01:39:39.409Z,11.18
2022-11-17T01:42:15.977Z,11.20
2022-11-17T01:44:56.542Z,11.19
2022-11-17T01:47:34.764Z,11.21
2022-11-17T01:50:11.258Z,11.21
2022-11-17T01:52:41.065Z,11.21
2022-11-17T01:55:12.322Z,11.19
2022-11-17T01:57:46.052Z,11.19
2022-11-17T02:00:15.067Z,11.22
2022-11-17T02:02:44.593Z,11.26
2022-11-17T02:05:23.735Z,11.24
2022-11-17T02:07:55.475Z,11.29
2022-11-17T02:10:23.608Z,11.25
2022-11-17T02:12:54.428Z,11.24
2022-11-17T02:15:23.158Z,11.32
2022-11-17T02:17:52.976Z,11.32
2022-11-17T02:20:37.163Z,11.33
2022-11-17T02:23:53.012Z,11.32
2022-11-17T02:26:35.360Z,11.41
2022-11-17T02:29:11.351Z,11.39
2022-11-17T02:31:47.592Z,11.38
2022-11-17T02:34:30.135Z,11.36
2022-11-17T02:37:04.630Z,11.33
2022-11-17T02:39:39.845Z,11.30
2022-11-17T02:42:12.297Z,11.31
2022-11-17T02:44:47.122Z,11.30
2022-11-17T02:47:19.056Z,11.31
2022-11-17T02:49:52.594Z,11.33
2022-11-17T02:52:22.354Z,11.36
2022-11-17T02:54:50.317Z,11.38
2022-11-17T02:57:31.110Z,11.34
2022-11-17T03:00:06.367Z,11.36
2022-11-17T03:02:54.116Z,11.35
2022-11-17T03:05:29.806Z,11.37
2022-11-17T03:08:09.147Z,11.32
2022-11-17T03:10:50.258Z,11.32
2022-11-17T03:13:22.288Z,11.35
2022-11-17T03:15:56.894Z,11.45
2022-11-17T03:18:31.743Z,11.37
2022-11-17T03:21:11.412Z,11.37
2022-11-17T03:23:44.368Z,11.31
2022-11-17T03:26:17.503Z,11.25
2022-11-17T03:28:48.423Z,11.30
2022-11-17T03:31:21.355Z,11.37
2022-11-17T03:33:51.136Z,11.29
2022-11-17T03:36:24.021Z,11.31
2022-11-17T03:38:59.405Z,11.31
2022-11-17T03:41:31.185Z,11.33
2022-11-17T03:44:00.722Z,11.37
2022-11-17T03:46:33.058Z,11.39
2022-11-17T03:49:09.427Z,11.39
2022-11-17T03:51:38.327Z,11.38
2022-11-17T03:54:09.295Z,11.36
2022-11-17T03:56:45.957Z,11.36
2022-11-17T03:59:18.623Z,11.32
2022-11-17T04:01:48.037Z,11.35
2022-11-17T04:04:18.483Z,11.38
2022-11-17T04:06:47.047Z,11.36
2022-11-17T04:09:18.700Z,11.34
2022-11-17T04:12:06.823Z,11.44
2022-11-17T04:14:52.557Z,11.39
2022-11-17T04:17:22.143Z,11.38
2022-11-17T04:19:50.081Z,11.35
2022-11-17T04:22:18.223Z,11.35
2022-11-17T04:24:48.734Z,11.37
2022-11-17T04:27:33.995Z,11.34
2022-11-17T04:30:02.316Z,11.37
2022-11-17T04:32:31.503Z,11.35
2022-11-17T04:34:59.458Z,11.37
2022-11-17T04:37:27.731Z,11.35
2022-11-17T04:39:55.625Z,11.35
2022-11-17T04:42:25.020Z,11.37
2022-11-17T04:44:53.051Z,11.42
2022-11-17T04:47:21.014Z,11.39
2022-11-17T04:49:50.429Z,11.46
2022-11-17T04:52:18.599Z,11.41
2022-11-17T04:54:46.543Z,11.38
2022-11-17T04:57:16.968Z,11.40
2022-11-17T04:59:44.982Z,11.33
2022-11-17T05:02:12.812Z,11.26
2022-11-17T05:05:00.500Z,11.24
2022-11-17T05:07:30.184Z,11.12
2022-11-17T05:09:58.334Z,11.05
2022-11-17T05:12:43.737Z,11.04
2022-11-17T05:15:11.843Z,10.99
2022-11-17T05:17:38.727Z,10.91
2022-11-17T05:20:08.232Z,10.87
2022-11-17T05:22:54.950Z,10.86
2022-11-17T05:25:23.061Z,10.88
2022-11-17T05:27:51.033Z,10.80
2022-11-17T05:30:19.185Z,10.80
2022-11-17T05:32:47.648Z,10.82
2022-11-17T05:35:18.210Z,10.79
2022-11-17T05:37:47.451Z,10.79
2022-11-17T05:40:16.937Z,10.70
2022-11-17T05:42:44.947Z,10.73
2022-11-17T05:45:12.931Z,10.72
2022-11-17T05:47:43.886Z,10.70
2022-11-17T05:50:14.830Z,10.69
2022-11-17T05:52:42.829Z,10.76
2022-11-17T05:55:12.708Z,10.77
2022-11-17T05:57:43.685Z,10.76
2022-11-17T06:00:14.732Z,10.83
2022-11-17T06:02:48.433Z,10.75
2022-11-17T06:05:20.164Z,10.77
2022-11-17T06:07:51.300Z,10.78
2022-11-17T06:10:23.631Z,10.93
2022-11-17T06:12:51.965Z,10.81
2022-11-17T06:15:20.180Z,10.75
2022-11-17T06:17:52.362Z,10.71
2022-11-17T06:20:25.820Z,10.81
2022-11-17T06:22:53.896Z,10.85
2022-11-17T06:25:23.397Z,10.90
2022-11-17T06:27:55.333Z,10.85
2022-11-17T06:30:23.734Z,10.84
2022-11-17T06:32:52.001Z,10.86
2022-11-17T06:35:19.991Z,10.88
2022-11-17T06:37:48.035Z,10.81
2022-11-17T06:40:16.803Z,10.89
2022-11-17T06:43:08.313Z,10.83
2022-11-17T06:45:37.708Z,10.81
2022-11-17T06:48:06.157Z,10.83
2022-11-17T06:50:34.739Z,10.80
2022-11-17T06:53:04.807Z,10.77
2022-11-17T06:55:33.256Z,10.81
2022-11-17T06:58:04.863Z,10.82
2022-11-17T07:00:37.487Z,10.87
2022-11-17T07:03:09.127Z,10.80
2022-11-17T07:05:40.360Z,10.82
2022-11-17T07:08:09.544Z,10.88
2022-11-17T07:10:38.258Z,10.88
2022-11-17T07:13:07.689Z,10.92
2022-11-17T07:15:35.995Z,10.94
2022-11-17T07:18:04.048Z,11.01
2022-11-17T07:20:32.197Z,11.15
2022-11-17T07:23:01.062Z,11.11
2022-11-17T07:25:29.081Z,11.06
2022-11-17T07:28:00.554Z,11.02
2022-11-17T07:30:30.332Z,10.97
2022-11-17T07:32:59.906Z,10.94
2022-11-17T07:35:28.671Z,10.85
2022-11-17T07:37:59.763Z,10.90
2022-11-17T07:40:35.287Z,10.87
2022-11-17T07:43:03.590Z,11.02
2022-11-17T07:45:33.270Z,11.06
2022-11-17T07:48:03.912Z,11.00
2022-11-17T07:50:32.619Z,10.91
2022-11-17T07:53:00.844Z,10.88
2022-11-17T07:55:28.869Z,10.88
2022-11-17T07:57:58.548Z,10.92
2022-11-17T08:00:27.630Z,10.89
2022-11-17T08:03:03.695Z,11.04
2022-11-17T08:05:41.789Z,11.07
2022-11-17T08:08:13.049Z,11.12
2022-11-17T08:10:44.184Z,11.21
2022-11-17T08:13:15.722Z,11.33
2022-11-17T08:15:44.031Z,11.41
2022-11-17T08:18:13.505Z,11.43
2022-11-17T08:20:42.423Z,11.47
2022-11-17T08:23:10.601Z,11.52
2022-11-17T08:25:38.662Z,11.55
2022-11-17T08:28:06.976Z,11.61
2022-11-17T08:30:36.653Z,11.64
2022-11-17T08:33:05.361Z,11.62
2022-11-17T08:35:37.618Z,11.68
2022-11-17T08:38:05.786Z,11.80
2022-11-17T08:40:35.910Z,11.81
2022-11-17T08:43:04.380Z,11.84
2022-11-17T08:45:32.628Z,11.90
2022-11-17T08:48:00.556Z,11.91
2022-11-17T08:50:28.678Z,11.84
2022-11-17T08:52:58.334Z,11.91
2022-11-17T08:55:27.400Z,11.87
2022-11-17T08:57:55.469Z,11.90
2022-11-17T09:00:23.739Z,11.88
2022-11-17T09:02:51.880Z,11.95
2022-11-17T09:05:23.549Z,12.07
2022-11-17T09:07:52.076Z,12.22
2022-11-17T09:10:21.732Z,12.24
2022-11-17T09:12:49.707Z,12.43
2022-11-17T09:15:20.202Z,12.53
2022-11-17T09:17:48.229Z,12.72
2022-11-17T09:20:17.504Z,12.75
2022-11-17T09:22:46.178Z,12.84
2022-11-17T09:25:14.504Z,12.94
2022-11-17T09:27:43.883Z,13.08
2022-11-17T09:30:14.444Z,13.26
2022-11-17T09:32:42.393Z,13.49
2022-11-17T09:35:10.911Z,13.66
2022-11-17T09:37:38.892Z,13.81
2022-11-17T09:40:13.875Z,14.01
2022-11-17T09:42:43.373Z,14.13
2022-11-17T09:45:20.832Z,14.17
2022-11-17T09:48:07.002Z,14.17
2022-11-17T09:50:46.561Z,14.27
2022-11-17T09:53:26.053Z,14.37
2022-11-17T09:55:59.348Z,14.39
2022-11-17T09:58:35.198Z,14.20
2022-11-17T10:01:03.500Z,14.12
2022-11-17T10:03:37.644Z,14.11
2022-11-17T10:06:16.024Z,14.19
2022-11-17T10:08:53.042Z,14.44
2022-11-17T10:11:32.801Z,14.56
2022-11-17T10:14:11.741Z,14.69
2022-11-17T10:16:42.223Z,14.86
2022-11-17T10:19:19.361Z,14.80
2022-11-17T10:21:50.390Z,14.80
2022-11-17T10:24:35.744Z,14.87
2022-11-17T10:27:06.637Z,14.88
2022-11-17T10:29:36.230Z,14.72
2022-11-17T10:32:15.508Z,14.51
2022-11-17T10:34:43.916Z,14.28
2022-11-17T10:37:28.549Z,14.28
2022-11-17T10:40:24.772Z,14.24
2022-11-17T10:43:22.656Z,14.44
2022-11-17T10:45:58.579Z,14.50
2022-11-17T10:48:30.450Z,14.35
2022-11-17T10:51:00.153Z,14.44
2022-11-17T10:53:41.334Z,14.57
2022-11-17T10:56:18.117Z,14.93
2022-11-17T10:58:59.341Z,14.89
2022-11-17T11:01:37.987Z,14.78
2022-11-17T11:04:08.147Z,14.74
2022-11-17T11:06:36.854Z,14.74
2022-11-17T11:09:11.569Z,14.86
2022-11-17T11:11:45.164Z,15.14
2022-11-17T11:14:27.203Z,15.26
2022-11-17T11:16:57.301Z,15.12
2022-11-17T11:19:25.780Z,15.09
2022-11-17T11:22:29.700Z,14.95
2022-11-17T11:25:06.668Z,15.14
2022-11-17T11:28:03.294Z,15.02
2022-11-17T11:30:35.189Z,15.02
2022-11-17T11:33:23.077Z,14.92
2022-11-17T11:36:05.372Z,14.64
2022-11-17T11:38:49.828Z,14.65
2022-11-17T11:41:33.120Z,14.53
2022-11-17T11:44:20.193Z,14.44
2022-11-17T11:46:57.949Z,14.41
2022-11-17T11:49:35.276Z,14.32
2022-11-17T11:52:07.916Z,14.34
2022-11-17T11:54:47.762Z,14.36
2022-11-17T11:57:21.973Z,14.18
2022-11-17T11:59:59.498Z,14.13
2022-11-17T12:02:41.628Z,14.09
2022-11-17T12:05:23.845Z,14.11
2022-11-17T12:07:58.231Z,13.95
2022-11-17T12:10:32.933Z,13.92
2022-11-17T12:13:01.563Z,13.74
2022-11-17T12:15:37.289Z,13.68
2022-11-17T12:18:11.883Z,13.57
2022-11-17T12:20:57.673Z,13.58
2022-11-17T12:23:37.288Z,13.74
2022-11-17T12:26:05.746Z,13.82
2022-11-17T12:28:36.372Z,14.00
2022-11-17T12:31:09.983Z,14.10
2022-11-17T12:34:10.996Z,14.01
2022-11-17T12:36:41.191Z,13.91
2022-11-17T12:39:53.313Z,13.99
2022-11-17T12:42:22.543Z,14.04
2022-11-17T12:44:58.000Z,13.92
2022-11-17T12:47:28.229Z,14.01
2022-11-17T12:50:26.933Z,14.03
2022-11-17T12:53:26.284Z,13.93
2022-11-17T12:56:23.326Z,14.03
2022-11-17T12:59:05.211Z,13.95
2022-11-17T13:01:43.556Z,14.00
2022-11-17T13:04:14.980Z,13.91
2022-11-17T13:07:01.862Z,13.89
2022-11-17T13:09:33.479Z,13.78
2022-11-17T13:12:05.136Z,13.83
2022-11-17T13:14:34.450Z,13.65
2022-11-17T13:17:03.170Z,13.56
2022-11-17T13:19:37.494Z,13.58
2022-11-17T13:22:14.634Z,13.70
2022-11-17T13:24:48.630Z,13.71
2022-11-17T13:27:22.300Z,13.69
2022-11-17T13:29:50.963Z,13.81
2022-11-17T13:32:30.575Z,13.62
2022-11-17T13:35:00.472Z,13.54
2022-11-17T13:37:30.501Z,13.40
2022-11-17T13:40:02.160Z,13.25
2022-11-17T13:42:34.804Z,13.30
2022-11-17T13:45:06.073Z,13.32
2022-11-17T13:47:46.656Z,13.26
2022-11-17T13:50:40.025Z,13.31
2022-11-17T13:53:23.666Z,13.18
2022-11-17T13:55:54.484Z,13.12
2022-11-17T13:58:33.100Z,13.13
2022-11-17T14:01:01.539Z,13.01
2022-11-17T14:03:38.303Z,13.10
2022-11-17T14:06:09.012Z,13.11
2022-11-17T14:08:39.029Z,13.16
2022-11-17T14:11:24.006Z,13.29
2022-11-17T14:13:55.920Z,13.19
2022-11-17T14:16:27.523Z,13.06
2022-11-17T14:19:02.413Z,13.01
2022-11-17T14:21:33.676Z,13.05
2022-11-17T14:24:07.680Z,13.01
2022-11-17T14:26:42.411Z,13.02
2022-11-17T14:29:12.439Z,13.03
2022-11-17T14:31:40.853Z,13.03
2022-11-17T14:34:08.857Z,12.97
2022-11-17T14:36:38.398Z,12.98
2022-11-17T14:39:14.748Z,12.90
2022-11-17T14:41:45.363Z,12.89
2022-11-17T14:44:13.416Z,12.83
2022-11-17T14:46:42.000Z,12.83
2022-11-17T14:49:10.107Z,12.72
2022-11-17T14:51:38.945Z,12.74
2022-11-17T14:54:06.937Z,12.75
2022-11-17T14:56:35.949Z,12.73
2022-11-17T14:59:05.542Z,12.67
2022-11-17T15:01:38.401Z,12.68
2022-11-17T15:04:34.414Z,12.64
2022-11-17T15:06:55.863Z,12.66
2022-11-17T15:09:23.917Z,12.63
2022-11-17T15:11:52.141Z,12.66
2022-11-17T15:14:22.059Z,12.67
2022-11-17T15:16:50.331Z,12.58
2022-11-17T15:19:19.398Z,12.59
2022-11-17T15:21:47.699Z,12.62
2022-11-17T15:24:15.800Z,12.60
2022-11-17T15:26:46.326Z,12.54
2022-11-17T15:29:17.271Z,12.40
2022-11-17T15:31:47.165Z,12.35
2022-11-17T15:34:19.980Z,12.27
2022-11-17T15:36:52.086Z,12.24
2022-11-17T15:39:20.828Z,12.24
2022-11-17T15:41:50.409Z,12.19
2022-11-17T15:44:19.169Z,12.15
2022-11-17T15:46:48.619Z,12.12
2022-11-17T15:49:17.342Z,12.21
2022-11-17T15:51:48.009Z,12.07
2022-11-17T15:54:20.264Z,12.10
2022-11-17T15:56:49.292Z,12.06
2022-11-17T15:59:17.395Z,12.09
2022-11-17T16:01:45.991Z,12.07
2022-11-17T16:04:16.405Z,12.01
2022-11-17T16:06:46.347Z,12.00
2022-11-17T16:09:17.156Z,11.96
2022-11-17T16:11:45.934Z,11.91
2022-11-17T16:14:14.914Z,11.89
2022-11-17T16:16:44.016Z,11.89
2022-11-17T16:19:11.937Z,11.81
2022-11-17T16:21:41.344Z,11.83
2022-11-17T16:24:12.547Z,11.76
2022-11-17T16:26:40.518Z,11.64
2022-11-17T16:29:09.836Z,11.73
2022-11-17T16:31:38.512Z,11.67
2022-11-17T16:34:08.007Z,11.64
2022-11-17T16:36:38.745Z,11.59
2022-11-17T16:39:12.776Z,11.56
2022-11-17T16:41:42.854Z,11.48
2022-11-17T16:44:12.391Z,11.46
2022-11-17T16:46:45.478Z,11.46
2022-11-17T16:49:16.036Z,11.61
2022-11-17T16:51:48.195Z,11.57
2022-11-17T16:54:18.181Z,11.44
2022-11-17T16:56:46.740Z,11.42
2022-11-17T16:59:15.640Z,11.41
2022-11-17T17:01:44.090Z,11.42
2022-11-17T17:04:13.107Z,11.36
2022-11-17T17:06:42.874Z,11.39
2022-11-17T17:09:13.279Z,11.39
2022-11-17T17:11:42.927Z,11.34
2022-11-17T17:14:14.493Z,11.30
2022-11-17T17:16:43.508Z,11.28
2022-11-17T17:19:15.745Z,11.29
2022-11-17T17:21:45.559Z,11.29
2022-11-17T17:24:14.012Z,11.25
2022-11-17T17:26:43.456Z,11.22
2022-11-17T17:29:12.639Z,11.16
2022-11-17T17:31:43.762Z,11.12
2022-11-17T17:34:13.765Z,11.09
2022-11-17T17:36:44.678Z,11.08
2022-11-17T17:39:16.334Z,11.04
2022-11-17T17:41:46.195Z,10.96
2022-11-17T17:44:16.179Z,10.98
2022-11-17T17:46:45.233Z,10.95
2022-11-17T17:49:15.869Z,10.90
2022-11-17T17:51:45.127Z,10.79
2022-11-17T17:54:17.086Z,10.76
2022-11-17T17:56:49.449Z,10.67
2022-11-17T17:59:18.442Z,10.58
2022-11-17T18:01:48.061Z,10.53
2022-11-17T18:04:17.077Z,10.50
2022-11-17T18:06:47.884Z,10.45
2022-11-17T18:09:19.411Z,10.43
2022-11-17T18:11:53.074Z,10.43
2022-11-17T18:14:25.179Z,10.48
2022-11-17T18:16:54.142Z,10.53
2022-11-17T18:19:29.791Z,10.56
2022-11-17T18:22:01.189Z,10.54
2022-11-17T18:24:30.491Z,10.63
2022-11-17T18:26:59.838Z,10.67
2022-11-17T18:29:27.997Z,10.67
2022-11-17T18:31:58.348Z,10.71
2022-11-17T18:34:26.994Z,10.72
2022-11-17T18:36:56.763Z,10.88
2022-11-17T18:39:25.472Z,10.78
2022-11-17T18:41:54.864Z,10.75
2022-11-17T18:44:26.701Z,10.66
2022-11-17T18:47:02.312Z,10.71
2022-11-17T18:49:31.340Z,10.76
2022-11-17T18:51:59.149Z,10.73
2022-11-17T18:54:27.234Z,10.77
2022-11-17T18:56:56.418Z,10.67
2022-11-17T18:59:25.785Z,10.69
2022-11-17T19:01:53.738Z,10.66
2022-11-17T19:04:22.511Z,10.63
2022-11-17T19:06:51.114Z,10.57
2022-11-17T19:09:21.584Z,10.54
2022-11-17T19:11:49.535Z,10.52
2022-11-17T19:14:17.557Z,10.51
2022-11-17T19:16:47.037Z,10.54
2022-11-17T19:19:16.076Z,10.53
2022-11-17T19:21:44.496Z,10.53
2022-11-17T19:24:15.561Z,10.53
2022-11-17T19:26:44.168Z,10.50
2022-11-17T19:29:17.252Z,10.42
2022-11-17T19:31:47.937Z,10.36
2022-11-17T19:34:16.883Z,10.35
2022-11-17T19:36:45.837Z,10.32
2022-11-17T19:39:15.193Z,10.27
2022-11-17T19:41:47.614Z,10.26
2022-11-17T19:44:15.760Z,10.28
2022-11-17T19:46:43.653Z,10.25
2022-11-17T19:49:15.324Z,10.25
2022-11-17T19:51:43.726Z,10.29
2022-11-17T19:54:13.842Z,10.37
2022-11-17T19:56:41.753Z,10.42
2022-11-17T19:59:15.633Z,10.46
2022-11-17T20:01:48.280Z,10.48
2022-11-17T20:04:21.690Z,10.51
2022-11-17T20:06:49.738Z,10.53
2022-11-17T20:09:18.102Z,10.56
2022-11-17T20:11:46.773Z,10.59
2022-11-17T20:14:18.178Z,10.60
2022-11-17T20:16:49.208Z,10.61
2022-11-17T20:19:17.802Z,10.62
2022-11-17T20:21:48.267Z,10.59
2022-11-17T20:24:16.697Z,10.58
2022-11-17T20:26:46.478Z,10.60
2022-11-17T20:29:19.008Z,10.48
2022-11-17T20:31:48.199Z,10.46
2022-11-17T20:34:16.238Z,10.44
2022-11-17T20:36:47.265Z,10.37
2022-11-17T20:39:19.152Z,10.28
2022-11-17T20:41:47.424Z,10.24
2022-11-17T20:44:25.041Z,10.22
2022-11-17T20:47:05.635Z,10.23
2022-11-17T20:49:39.124Z,10.24
2022-11-17T20:52:13.035Z,10.27
2022-11-17T20:54:42.699Z,10.34
2022-11-17T20:57:10.691Z,10.36
2022-11-17T20:59:39.060Z,10.40
2022-11-17T21:02:07.088Z,10.40
2022-11-17T21:04:35.414Z,10.37
2022-11-17T21:07:03.429Z,10.39
2022-11-17T21:09:32.857Z,10.41
2022-11-17T21:12:02.598Z,10.41
2022-11-17T21:14:30.713Z,10.42
2022-11-17T21:17:00.492Z,10.42
2022-11-17T21:19:29.497Z,10.42
2022-11-17T21:21:57.538Z,10.43
2022-11-17T21:24:26.171Z,10.43
2022-11-17T21:26:57.052Z,10.45
2022-11-17T21:29:26.796Z,10.47
2022-11-17T21:31:57.172Z,10.46
2022-11-17T21:34:25.228Z,10.47
2022-11-17T21:36:54.280Z,10.42
2022-11-17T21:39:24.733Z,10.36
2022-11-17T21:41:54.785Z,10.33
2022-11-17T21:44:27.808Z,10.31
2022-11-17T21:46:55.693Z,10.33
2022-11-17T21:49:23.529Z,10.33
2022-11-17T21:51:51.516Z,10.35
2022-11-17T21:54:19.660Z,10.35
2022-11-17T21:56:47.983Z,10.33
2022-11-17T21:59:20.493Z,10.33
2022-11-17T22:01:52.477Z,10.35
2022-11-17T22:04:20.428Z,10.36
2022-11-17T22:06:48.683Z,10.39
2022-11-17T22:09:19.324Z,10.40
2022-11-17T22:11:47.605Z,10.40
2022-11-17T22:14:22.933Z,10.35
2022-11-17T22:16:54.981Z,10.34
2022-11-17T22:19:24.676Z,10.35
2022-11-17T22:21:54.887Z,10.33
2022-11-17T22:24:23.223Z,10.34
2022-11-17T22:26:51.675Z,10.36
2022-11-17T22:29:21.403Z,10.35
2022-11-17T22:31:51.370Z,10.38
2022-11-17T22:34:20.837Z,10.41
2022-11-17T22:36:49.018Z,10.41
2022-11-17T22:39:17.855Z,10.44
2022-11-17T22:41:46.043Z,10.46
2022-11-17T22:44:15.432Z,10.49
2022-11-17T22:46:44.126Z,10.50
2022-11-17T22:49:14.733Z,10.53
2022-11-17T22:52:01.942Z,10.57
2022-11-17T22:54:30.276Z,10.54
2022-11-17T22:56:58.625Z,10.55
2022-11-17T22:59:27.392Z,10.56
2022-11-17T23:01:55.467Z,10.58
2022-11-17T23:04:24.345Z,10.60
2022-11-17T23:06:53.884Z,10.62
2022-11-17T23:09:21.986Z,10.60
2022-11-17T23:11:50.511Z,10.55
2022-11-17T23:14:18.507Z,10.58
2022-11-17T23:16:46.424Z,10.58
2022-11-17T23:19:14.847Z,10.62
2022-11-17T23:21:43.525Z,10.59
2022-11-17T23:24:14.524Z,10.58
2022-11-17T23:26:43.516Z,10.55
2022-11-17T23:29:11.872Z,10.53
2022-11-17T23:31:40.153Z,10.56
2022-11-17T23:34:10.021Z,10.55
2022-11-17T23:36:38.180Z,10.49
2022-11-17T23:39:08.447Z,10.49
2022-11-17T23:41:38.545Z,10.48
2022-11-17T23:44:07.150Z,10.49
2022-11-17T23:46:35.240Z,10.50
2022-11-17T23:49:03.615Z,10.51
2022-11-17T23:51:34.916Z,10.54
2022-11-17T23:54:03.470Z,10.55
2022-11-17T23:56:33.487Z,10.54
2022-11-17T23:59:03.178Z,10.56
